createdAt,value
2022-11-28T00:04:15.852Z,98238.38
2022-11-28T00:09:20.547Z,98233.19
2022-11-28T00:14:24.661Z,98227.28
2022-11-28T00:19:27.380Z,98228.22
2022-11-28T00:24:30.235Z,98228.22
2022-11-28T00:29:34.328Z,98227.56
2022-11-28T00:34:37.088Z,98225.75
2022-11-28T00:39:39.897Z,98229.06
2022-11-28T00:44:44.439Z,98222.00
2022-11-28T00:49:47.360Z,98209.56
2022-11-28T00:54:50.179Z,98200.22
2022-11-28T00:59:54.260Z,98192.09
2022-11-28T01:04:57.018Z,98199.28
2022-11-28T01:09:59.833Z,98203.91
2022-11-28T01:15:05.036Z,98194.66
2022-11-28T01:20:09.657Z,98203.31
2022-11-28T01:25:12.492Z,98183.44
2022-11-28T01:30:16.865Z,98173.63
2022-11-28T01:35:19.785Z,98179.97
2022-11-28T01:40:22.933Z,98181.09
2022-11-28T01:45:30.288Z,98162.84
2022-11-28T01:50:36.000Z,98154.09
2022-11-28T01:55:43.709Z,98130.75
2022-11-28T02:00:49.072Z,98125.16
2022-11-28T02:05:52.886Z,98117.16
2022-11-28T02:11:14.551Z,98140.91
2022-11-28T02:16:35.908Z,98122.72
2022-11-28T02:21:57.465Z,98109.13
2022-11-28T02:27:20.707Z,98106.81
2022-11-28T02:32:37.692Z,98079.53
2022-11-28T02:37:45.781Z,98076.69
2022-11-28T02:43:00.604Z,98077.63
2022-11-28T02:48:08.848Z,98070.69
2022-11-28T02:53:16.489Z,98080.41
2022-11-28T02:58:19.420Z,98089.06
2022-11-28T03:03:40.988Z,98088.44
2022-11-28T03:08:56.214Z,98072.81
2022-11-28T03:14:08.580Z,98069.34
2022-11-28T03:19:21.478Z,98061.19
2022-11-28T03:24:33.237Z,98063.81
2022-11-28T03:29:41.951Z,98048.75
2022-11-28T03:34:50.869Z,98033.53
2022-11-28T03:40:00.145Z,98025.81
2022-11-28T03:45:09.346Z,98019.69
2022-11-28T03:50:19.761Z,98005.84
2022-11-28T03:55:26.587Z,98008.19
2022-11-28T04:00:30.932Z,98023.16
2022-11-28T04:05:42.874Z,98017.88
2022-11-28T04:10:51.644Z,98007.66
2022-11-28T04:16:00.361Z,98012.19
2022-11-28T04:21:11.399Z,98024.88
2022-11-28T04:26:18.676Z,98045.56
2022-11-28T04:31:24.699Z,98007.03
2022-11-28T04:36:31.283Z,98020.88
2022-11-28T04:41:37.502Z,98018.53
2022-11-28T04:46:44.361Z,98014.72
2022-11-28T04:51:55.148Z,98022.13
2022-11-28T04:57:03.057Z,98021.47
2022-11-28T05:02:07.181Z,98012.00
2022-11-28T05:07:11.719Z,98005.56
2022-11-28T05:12:14.500Z,98016.75
2022-11-28T05:17:17.354Z,98005.47
2022-11-28T05:22:21.447Z,98007.16
2022-11-28T05:27:24.270Z,97997.34
2022-11-28T05:32:29.726Z,97991.97
2022-11-28T05:37:33.955Z,97998.38
2022-11-28T05:42:37.121Z,97997.56
2022-11-28T05:47:39.901Z,97994.06
2022-11-28T05:52:44.158Z,97996.63
2022-11-28T05:57:47.118Z,98016.84
2022-11-28T06:02:50.014Z,98024.69
2022-11-28T06:07:54.378Z,98021.09
2022-11-28T06:12:57.305Z,98022.25
2022-11-28T06:18:00.111Z,98019.78
2022-11-28T06:23:04.226Z,98014.63
2022-11-28T06:28:07.184Z,98024.22
2022-11-28T06:33:09.938Z,98012.91
2022-11-28T06:38:14.477Z,98019.13
2022-11-28T06:43:17.541Z,98030.72
2022-11-28T06:48:20.589Z,98023.88
2022-11-28T06:53:28.669Z,98020.69
2022-11-28T06:58:34.551Z,98024.91
2022-11-28T07:03:37.515Z,98028.41
2022-11-28T07:08:41.987Z,98027.66
2022-11-28T07:13:46.694Z,98021.84
2022-11-28T07:18:50.274Z,98026.16
2022-11-28T07:23:55.584Z,98031.31
2022-11-28T07:28:59.872Z,98027.25
2022-11-28T07:34:04.132Z,98028.28
2022-11-28T07:39:09.853Z,98034.09
2022-11-28T07:44:13.102Z,98030.34
2022-11-28T07:49:16.588Z,98027.50
2022-11-28T07:54:20.878Z,98026.00
2022-11-28T07:59:23.782Z,98029.28
2022-11-28T08:04:27.611Z,98024.13
2022-11-28T08:09:34.061Z,98013.25
2022-11-28T08:14:37.568Z,98025.81
2022-11-28T08:19:40.729Z,98030.50
2022-11-28T08:24:45.322Z,98025.63
2022-11-28T08:29:52.207Z,98021.66
2022-11-28T08:34:56.373Z,98009.72
2022-11-28T08:40:00.593Z,98009.00
2022-11-28T08:45:04.157Z,98016.25
2022-11-28T08:50:09.298Z,98003.50
2022-11-28T08:55:18.282Z,98005.72
2022-11-28T09:00:26.072Z,98005.06
2022-11-28T09:05:30.466Z,98006.97
2022-11-28T09:10:36.994Z,98009.16
2022-11-28T09:15:41.286Z,98010.84
2022-11-28T09:20:43.993Z,98006.06
2022-11-28T09:25:50.949Z,98004.28
2022-11-28T09:31:01.468Z,98005.53
2022-11-28T09:36:08.714Z,98010.59
2022-11-28T09:41:39.606Z,98012.47
2022-11-28T09:46:43.844Z,98010.38
2022-11-28T09:51:55.927Z,98010.28
2022-11-28T09:57:01.525Z,98021.44
2022-11-28T10:02:19.912Z,98012.78
2022-11-28T10:07:31.054Z,98020.09
2022-11-28T10:12:43.387Z,98024.09
2022-11-28T10:17:54.132Z,98018.16
2022-11-28T10:23:00.810Z,98017.75
2022-11-28T10:28:07.962Z,98015.91
2022-11-28T10:33:25.188Z,97999.75
2022-11-28T10:38:30.171Z,98005.28
2022-11-28T10:43:44.689Z,98009.81
2022-11-28T10:48:51.521Z,98002.38
2022-11-28T10:54:06.906Z,97996.59
2022-11-28T10:59:22.215Z,97992.94
2022-11-28T11:04:28.193Z,97994.09
2022-11-28T11:09:30.952Z,97991.78
2022-11-28T11:14:39.853Z,97990.97
2022-11-28T11:19:42.859Z,97988.78
2022-11-28T11:24:46.368Z,97980.84
2022-11-28T11:29:52.445Z,97982.28
2022-11-28T11:34:58.008Z,97982.44
2022-11-28T11:40:02.619Z,97984.94
2022-11-28T11:45:29.468Z,97985.97
2022-11-28T11:50:33.117Z,97987.97
2022-11-28T11:55:44.600Z,97986.72
2022-11-28T12:00:48.968Z,97989.97
2022-11-28T12:11:24.463Z,97990.94
2022-11-28T12:16:48.859Z,97987.44
2022-11-28T12:22:07.893Z,97986.41
2022-11-28T12:27:26.081Z,97979.81
2022-11-28T12:32:43.277Z,97978.38
2022-11-28T12:38:11.695Z,97974.16
2022-11-28T12:43:26.912Z,97968.50
2022-11-28T12:49:00.839Z,97969.97
2022-11-28T12:54:18.456Z,97961.78
2022-11-28T12:59:27.017Z,97962.50
2022-11-28T13:04:48.261Z,97962.75
2022-11-28T13:10:01.568Z,97960.91
2022-11-28T13:15:15.248Z,97965.25
2022-11-28T13:20:26.351Z,97961.41
2022-11-28T13:25:42.833Z,97958.19
2022-11-28T13:30:52.756Z,97960.94
2022-11-28T13:35:59.007Z,97953.47
2022-11-28T13:41:22.860Z,97950.56
2022-11-28T13:46:35.083Z,97944.69
2022-11-28T13:51:39.325Z,97952.41
2022-11-28T13:56:42.251Z,97955.78
2022-11-28T14:01:47.005Z,97959.88
2022-11-28T14:06:58.932Z,97954.72
2022-11-28T14:12:17.473Z,97954.81
2022-11-28T14:17:37.182Z,97960.72
2022-11-28T14:22:54.251Z,97969.88
2022-11-28T14:28:00.749Z,97965.16
2022-11-28T14:33:07.316Z,97962.88
2022-11-28T14:38:42.718Z,97964.78
2022-11-28T14:43:49.635Z,97973.97
2022-11-28T14:49:18.869Z,97972.53
2022-11-28T14:54:25.154Z,97977.44
2022-11-28T14:59:34.352Z,97978.13
2022-11-28T15:04:54.793Z,97985.09
2022-11-28T15:10:09.199Z,97986.78
2022-11-28T15:15:17.168Z,97999.06
2022-11-28T15:20:27.869Z,98000.25
2022-11-28T15:25:37.148Z,98002.03
2022-11-28T15:30:47.510Z,97997.63
2022-11-28T15:35:58.184Z,98009.16
2022-11-28T15:41:01.705Z,97999.41
2022-11-28T15:46:08.206Z,98004.44
2022-11-28T15:51:26.434Z,98011.81
2022-11-28T15:56:29.442Z,98011.69
2022-11-28T16:01:34.547Z,98009.03
2022-11-28T16:06:41.359Z,98006.50
2022-11-28T16:11:46.037Z,98010.22
2022-11-28T16:16:50.484Z,98009.50
2022-11-28T16:21:55.731Z,98012.13
2022-11-28T16:27:00.866Z,98013.81
2022-11-28T16:32:10.345Z,98014.78
2022-11-28T16:37:13.650Z,98020.81
2022-11-28T16:42:20.195Z,98018.06
2022-11-28T16:47:30.309Z,98021.53
2022-11-28T16:52:46.581Z,98032.75
2022-11-28T16:57:56.037Z,98022.97
2022-11-28T17:03:00.226Z,98036.72
2022-11-28T17:08:03.034Z,98037.81
2022-11-28T17:13:05.815Z,98028.53
2022-11-28T17:18:09.991Z,98031.91
2022-11-28T17:23:15.020Z,98035.41
2022-11-28T17:28:22.352Z,98043.13
2022-11-28T17:33:28.493Z,98040.47
2022-11-28T17:38:33.658Z,98043.97
2022-11-28T17:43:39.220Z,98049.03
2022-11-28T17:48:44.112Z,98052.53
2022-11-28T17:53:47.315Z,98052.66
2022-11-28T17:58:50.358Z,98046.50
2022-11-28T18:03:55.517Z,98045.66
2022-11-28T18:09:00.011Z,98049.16
2022-11-28T18:14:03.279Z,98048.09
2022-11-28T18:19:07.564Z,98043.50
2022-11-28T18:24:10.710Z,98056.63
2022-11-28T18:29:13.581Z,98051.09
2022-11-28T18:34:18.929Z,98048.69
2022-11-28T18:39:21.648Z,98051.09
2022-11-28T18:44:25.249Z,98057.00
2022-11-28T18:49:30.503Z,98059.41
2022-11-28T18:54:33.443Z,98056.91
2022-11-28T18:59:36.370Z,98061.34
2022-11-28T19:04:40.902Z,98065.78
2022-11-28T19:09:45.162Z,98068.31
2022-11-28T19:14:48.179Z,98072.56
2022-11-28T19:19:53.091Z,98074.25
2022-11-28T19:24:55.925Z,98074.47
2022-11-28T19:29:58.799Z,98074.34
2022-11-28T19:35:02.988Z,98076.91
2022-11-28T19:40:07.211Z,98074.25
2022-11-28T19:45:11.265Z,98084.09
2022-11-28T19:50:15.833Z,98080.50
2022-11-28T19:55:18.610Z,98082.06
2022-11-28T20:00:22.135Z,98096.16
2022-11-28T20:05:26.444Z,98089.03
2022-11-28T20:10:29.863Z,98090.97
2022-11-28T20:15:36.203Z,98086.38
2022-11-28T20:20:41.498Z,98091.91
2022-11-28T20:25:44.839Z,98102.28
2022-11-28T20:30:47.766Z,98101.69
2022-11-28T20:35:59.735Z,98107.06
2022-11-28T20:41:03.291Z,98112.38
2022-11-28T20:46:07.606Z,98115.16
2022-11-28T20:51:13.186Z,98120.22
2022-11-28T20:56:17.803Z,98115.88
2022-11-28T21:01:22.666Z,98115.16
2022-11-28T21:06:27.042Z,98118.53
2022-11-28T21:11:55.845Z,98118.53
2022-11-28T21:16:52.857Z,98119.59
2022-11-28T21:21:57.108Z,98118.53
2022-11-28T21:26:59.965Z,98121.03
2022-11-28T21:32:02.845Z,98126.34
2022-11-28T21:37:07.122Z,98125.38
2022-11-28T21:42:09.951Z,98130.56
2022-11-28T21:47:13.022Z,98128.03
2022-11-28T21:52:23.343Z,98137.56
2022-11-28T21:57:26.172Z,98137.44
2022-11-28T22:02:30.991Z,98128.75
2022-11-28T22:07:37.567Z,98126.75
2022-11-28T22:12:40.402Z,98129.25
2022-11-28T22:17:43.390Z,98125.63
2022-11-28T22:22:48.829Z,98132.63
2022-11-28T22:27:51.680Z,98132.75
2022-11-28T22:32:54.871Z,98135.63
2022-11-28T22:37:59.097Z,98141.16
2022-11-28T22:43:01.876Z,98139.25
2022-11-28T22:48:05.306Z,98150.91
2022-11-28T22:53:09.671Z,98145.38
2022-11-28T22:58:12.578Z,98153.22
2022-11-28T23:03:15.647Z,98153.44
2022-11-28T23:08:20.477Z,98154.28
2022-11-28T23:13:23.906Z,98158.75
2022-11-28T23:18:26.885Z,98158.59
2022-11-28T23:23:32.870Z,98163.91
2022-11-28T23:28:37.173Z,98168.47
2022-11-28T23:33:40.933Z,98166.78
2022-11-28T23:38:47.903Z,98167.75
2022-11-28T23:43:50.953Z,98160.75
2022-11-28T23:48:53.911Z,98156.44
2022-11-28T23:53:58.176Z,98171.34
2022-11-28T23:59:02.360Z,98170.38
